Time;durP1;ratioP1;P1;durP2;ratioP2;P2;SDS_P1;SDS_P2;PMS_P1;PMS_P2;Temp;Humidity;BMP_temperature;BMP_pressure;BME280_temperature;BME280_humidity;BME280_pressure;Samples;Min_cycle;Max_cycle;Signal;HPM_P1;HPM_P2
2023/04/05 00:00:32;;;;;;;3.78;1.55;;;;;;;;;;6121947;23;20013;-80
2023/04/05 00:03:00;;;;;;;3.65;1.65;;;;;;;;;;6122455;23;20091;-80
2023/04/05 00:05:29;;;;;;;3.38;1.35;;;;;;;;;;6123980;23;20017;-79
2023/04/05 00:07:56;;;;;;;3.83;1.45;;;;;;;;;;6148373;23;20048;-80
2023/04/05 00:10:22;;;;;;;7.78;1.70;;;;;;;;;;6121624;23;20028;-80
2023/04/05 00:12:47;;;;;;;5.65;1.90;;;;;;;;;;6096758;23;20522;-80
2023/04/05 00:15:12;;;;;;;3.58;1.60;;;;;;;;;;6098221;23;20088;-79
2023/04/05 00:17:38;;;;;;;4.35;1.70;;;;;;;;;;6121478;23;20088;-81
2023/04/05 00:20:06;;;;;;;3.97;1.50;;;;;;;;;;6096478;23;20510;-80
2023/04/05 00:22:34;;;;;;;4.63;1.70;;;;;;;;;;6146774;23;20352;-80
2023/04/05 00:25:03;;;;;;;3.60;1.48;;;;;;;;;;6098550;23;20021;-81
2023/04/05 00:27:28;;;;;;;4.53;1.80;;;;;;;;;;6148384;23;20371;-81
2023/04/05 00:29:54;;;;;;;3.47;1.67;;;;;;;;;;6148074;23;20044;-80
2023/04/05 00:32:20;;;;;;;6.45;1.90;;;;;;;;;;6120197;23;20350;-80
2023/04/05 00:34:45;;;;;;;4.60;1.67;;;;;;;;;;6147480;23;20618;-81
2023/04/05 00:37:11;;;;;;;4.30;2.05;;;;;;;;;;6122230;23;20064;-80
2023/04/05 00:39:37;;;;;;;4.97;1.85;;;;;;;;;;6122914;23;20017;-80
2023/04/05 00:42:03;;;;;;;3.85;1.80;;;;;;;;;;6096777;23;20456;-80
2023/04/05 00:44:33;;;;;;;6.53;2.20;;;;;;;;;;6122911;23;20131;-80
2023/04/05 00:46:59;;;;;;;4.15;1.80;;;;;;;;;;6124489;23;20022;-79
2023/04/05 00:49:25;;;;;;;4.65;1.90;;;;;;;;;;6098256;23;20072;-80
2023/04/05 00:51:51;;;;;;;6.97;1.83;;;;;;;;;;6097791;23;20018;-79
2023/04/05 00:54:17;;;;;;;4.75;2.03;;;;;;;;;;6123186;23;20125;-80
2023/04/05 00:56:42;;;;;;;5.18;1.92;;;;;;;;;;6120808;23;20060;-80
2023/04/05 00:59:08;;;;;;;5.30;1.77;;;;;;;;;;6147829;23;20550;-81
2023/04/05 01:01:36;;;;;;;5.10;2.22;;;;;;;;;;6122227;23;20136;-81
2023/04/05 01:04:04;;;;;;;4.22;2.00;;;;;;;;;;6099703;23;20017;-80
2023/04/05 01:06:36;;;;;;;;;;;;;;;;;;6122866;23;20025;-80
2023/04/05 01:09:08;;;;;;;5.32;1.80;;;;;;;;;;6171219;23;19912;-80
2023/04/05 01:11:34;;;;;;;4.32;1.98;;;;;;;;;;6121383;23;20527;-80
2023/04/05 01:14:01;;;;;;;4.22;1.60;;;;;;;;;;6122710;23;20048;-80
2023/04/05 01:16:26;;;;;;;4.53;1.90;;;;;;;;;;6120874;23;20048;-80
2023/04/05 01:18:55;;;;;;;7.40;1.60;;;;;;;;;;6120645;23;20076;-79
2023/04/05 01:21:33;;;;;;;4.47;1.83;;;;;;;;;;6094976;23;20682;-81
2023/04/05 01:24:11;;;;;;;3.20;1.63;;;;;;;;;;6146857;23;20028;-80
2023/04/05 01:26:56;;;;;;;4.55;1.65;;;;;;;;;;6148073;23;20028;-81
2023/04/05 01:29:37;;;;;;;6.55;1.85;;;;;;;;;;6149074;23;20076;-79
2023/04/05 01:32:12;;;;;;;7.65;2.20;;;;;;;;;;6146549;23;20034;-80
2023/04/05 01:35:07;;;;;;;6.15;1.83;;;;;;;;;;6120920;23;20069;-80
2023/04/05 01:37:34;;;;;;;3.58;1.80;;;;;;;;;;6146271;23;20343;-80
2023/04/05 01:40:00;;;;;;;4.65;2.22;;;;;;;;;;6146356;23;20431;-81
2023/04/05 01:42:26;;;;;;;5.80;2.10;;;;;;;;;;6119069;23;20018;-81
2023/04/05 01:44:52;;;;;;;5.32;1.95;;;;;;;;;;6120130;23;20017;-81
2023/04/05 01:47:19;;;;;;;3.47;1.70;;;;;;;;;;6119476;23;20128;-81
2023/04/05 01:49:45;;;;;;;5.00;1.83;;;;;;;;;;6120317;23;20079;-81
2023/04/05 01:52:10;;;;;;;3.22;1.55;;;;;;;;;;6145055;23;20088;-81
2023/04/05 01:54:35;;;;;;;6.38;1.95;;;;;;;;;;6119364;23;20068;-80
2023/04/05 01:57:01;;;;;;;4.00;1.92;;;;;;;;;;6119428;23;20123;-81
2023/04/05 01:59:26;;;;;;;7.55;1.95;;;;;;;;;;6094876;23;20017;-81
2023/04/05 02:01:52;;;;;;;5.07;2.15;;;;;;;;;;6147322;23;20049;-80
2023/04/05 02:04:17;;;;;;;6.45;2.08;;;;;;;;;;6123288;23;20340;-81
2023/04/05 02:06:43;;;;;;;4.32;1.70;;;;;;;;;;6095456;23;20341;-81
2023/04/05 02:09:08;;;;;;;4.82;1.98;;;;;;;;;;6096262;23;20515;-80
2023/04/05 02:11:34;;;;;;;5.57;2.25;;;;;;;;;;6119810;23;20025;-80
2023/04/05 02:13:59;;;;;;;6.85;2.60;;;;;;;;;;6097600;23;20021;-80
2023/04/05 02:16:25;;;;;;;5.53;2.45;;;;;;;;;;6147582;23;20021;-80
2023/04/05 02:18:56;;;;;;;4.22;1.77;;;;;;;;;;6146910;23;20018;-79
2023/04/05 02:21:21;;;;;;;5.10;2.28;;;;;;;;;;6147110;23;20029;-80
2023/04/05 02:23:47;;;;;;;5.20;2.30;;;;;;;;;;6148277;23;20433;-80
2023/04/05 02:26:12;;;;;;;4.00;2.30;;;;;;;;;;6121920;23;20013;-82
2023/04/05 02:28:37;;;;;;;5.25;2.30;;;;;;;;;;6123577;23;20339;-80
2023/04/05 02:31:08;;;;;;;7.85;2.63;;;;;;;;;;6125020;23;20014;-80
2023/04/05 02:33:34;;;;;;;7.00;2.55;;;;;;;;;;6124401;23;20021;-80
2023/04/05 02:36:03;;;;;;;5.13;2.30;;;;;;;;;;6150068;23;20016;-79
2023/04/05 02:38:29;;;;;;;6.55;2.28;;;;;;;;;;6101114;23;20018;-79
2023/04/05 02:40:54;;;;;;;4.43;1.83;;;;;;;;;;6149087;23;20399;-81
2023/04/05 02:43:20;;;;;;;5.57;2.53;;;;;;;;;;6124565;23;20025;-79
2023/04/05 02:45:45;;;;;;;4.90;2.40;;;;;;;;;;6149908;23;20036;-82
2023/04/05 02:48:11;;;;;;;5.53;2.25;;;;;;;;;;6123245;23;20086;-81
2023/04/05 02:50:36;;;;;;;4.28;2.05;;;;;;;;;;6123476;23;20358;-82
2023/04/05 02:53:01;;;;;;;5.10;2.10;;;;;;;;;;6123826;23;20061;-81
2023/04/05 02:55:29;;;;;;;6.38;2.08;;;;;;;;;;6122645;23;20052;-81
2023/04/05 02:57:59;;;;;;;;;;;;;;;;;;6124406;23;20013;-80
2023/04/05 03:00:25;;;;;;;4.70;1.80;;;;;;;;;;6170655;23;19913;-81
2023/04/05 03:02:50;;;;;;;5.28;2.40;;;;;;;;;;6149651;23;20056;-80
2023/04/05 03:05:17;;;;;;;6.85;2.28;;;;;;;;;;6147860;23;20021;-81
2023/04/05 03:07:45;;;;;;;4.68;2.08;;;;;;;;;;6098666;23;20475;-81
2023/04/05 03:10:12;;;;;;;4.10;2.05;;;;;;;;;;6123348;23;20017;-81
2023/04/05 03:12:38;;;;;;;5.57;2.28;;;;;;;;;;6122455;23;20274;-80
2023/04/05 03:15:04;;;;;;;7.43;1.83;;;;;;;;;;6150598;23;20033;-81
2023/04/05 03:17:29;;;;;;;5.05;2.10;;;;;;;;;;6123406;23;20041;-80
2023/04/05 03:19:54;;;;;;;5.28;2.40;;;;;;;;;;6124327;23;20024;-80
2023/04/05 03:22:20;;;;;;;4.00;1.85;;;;;;;;;;6122344;23;20022;-79
2023/04/05 03:24:46;;;;;;;4.43;1.80;;;;;;;;;;6153000;23;20522;-81
2023/04/05 03:27:13;;;;;;;4.40;2.05;;;;;;;;;;6098903;23;20018;-81
2023/04/05 03:29:40;;;;;;;4.05;2.13;;;;;;;;;;6125883;23;20406;-81
2023/04/05 03:32:10;;;;;;;4.78;1.73;;;;;;;;;;6148828;23;20479;-81
2023/04/05 03:34:37;;;;;;;4.60;2.00;;;;;;;;;;6123805;23;20092;-81
2023/04/05 03:37:03;;;;;;;5.17;1.67;;;;;;;;;;6123279;23;20010;-80
2023/04/05 03:39:28;;;;;;;4.25;1.77;;;;;;;;;;6099632;23;20745;-80
2023/04/05 03:41:55;;;;;;;5.63;1.52;;;;;;;;;;6097713;23;20013;-80
2023/04/05 03:44:20;;;;;;;4.13;1.83;;;;;;;;;;6099256;23;20105;-79
2023/04/05 03:46:46;;;;;;;5.75;1.88;;;;;;;;;;6098071;23;20506;-80
2023/04/05 03:49:11;;;;;;;5.63;1.80;;;;;;;;;;6123737;23;20033;-81
2023/04/05 03:51:36;;;;;;;3.30;1.77;;;;;;;;;;6122472;23;20104;-81
2023/04/05 03:54:02;;;;;;;6.05;2.20;;;;;;;;;;6122453;23;20013;-80
2023/04/05 03:56:27;;;;;;;4.15;1.73;;;;;;;;;;6095451;23;20048;-79
2023/04/05 03:58:53;;;;;;;4.53;1.80;;;;;;;;;;6096244;23;20021;-79
2023/04/05 04:01:18;;;;;;;4.25;1.48;;;;;;;;;;6098408;23;20119;-81
2023/04/05 04:03:44;;;;;;;4.22;1.52;;;;;;;;;;6149209;23;20060;-81
2023/04/05 04:06:10;;;;;;;3.50;1.40;;;;;;;;;;6122353;23;20021;-80
2023/04/05 04:08:35;;;;;;;3.92;1.55;;;;;;;;;;6097349;23;20080;-80
2023/04/05 04:11:00;;;;;;;4.80;1.70;;;;;;;;;;6146271;23;20017;-81
2023/04/05 04:13:26;;;;;;;5.13;1.83;;;;;;;;;;6121079;23;20017;-81
2023/04/05 04:15:51;;;;;;;4.03;1.67;;;;;;;;;;6123190;23;20017;-79
2023/04/05 04:18:17;;;;;;;3.75;1.67;;;;;;;;;;6098250;23;20044;-80
2023/04/05 04:20:42;;;;;;;4.35;1.65;;;;;;;;;;6121502;23;20590;-80
2023/04/05 04:23:08;;;;;;;5.07;1.83;;;;;;;;;;6149397;23;20075;-80
2023/04/05 04:25:35;;;;;;;7.35;1.88;;;;;;;;;;6120114;23;20017;-79
2023/04/05 04:28:02;;;;;;;5.65;1.70;;;;;;;;;;6121584;23;20033;-80
2023/04/05 04:30:28;;;;;;;3.75;1.48;;;;;;;;;;6124030;23;20045;-80
2023/04/05 04:32:53;;;;;;;5.75;2.05;;;;;;;;;;6124481;23;20044;-79
2023/04/05 04:35:27;;;;;;;4.25;1.50;;;;;;;;;;6121294;23;20053;-80
2023/04/05 04:37:57;;;;;;;4.18;1.70;;;;;;;;;;6094962;23;20024;-81
2023/04/05 04:40:49;;;;;;;4.78;1.70;;;;;;;;;;6119785;23;20013;-80
2023/04/05 04:43:18;;;;;;;3.60;1.52;;;;;;;;;;6099464;23;20884;-80
2023/04/05 04:45:47;;;;;;;4.50;1.70;;;;;;;;;;6094698;23;20565;-81
2023/04/05 04:48:13;;;;;;;4.20;1.50;;;;;;;;;;6119769;23;20434;-80
2023/04/05 04:50:39;;;;;;;4.07;1.67;;;;;;;;;;6119337;23;20510;-80
2023/04/05 04:53:04;;;;;;;5.18;1.75;;;;;;;;;;6119230;23;20021;-81
2023/04/05 04:55:32;;;;;;;3.65;1.60;;;;;;;;;;6094434;23;20678;-81
2023/04/05 04:57:58;;;;;;;4.20;1.60;;;;;;;;;;6145783;23;20020;-80
2023/04/05 05:00:24;;;;;;;4.10;1.70;;;;;;;;;;6118965;23;20108;-80
2023/04/05 05:02:51;;;;;;;4.20;1.75;;;;;;;;;;6120988;23;20020;-80
2023/04/05 05:05:17;;;;;;;4.82;1.45;;;;;;;;;;6119688;23;20347;-81
2023/04/05 05:07:42;;;;;;;3.65;1.58;;;;;;;;;;6146006;23;20032;-81
2023/04/05 05:10:09;;;;;;;7.45;2.00;;;;;;;;;;6120106;23;20088;-81
2023/04/05 05:12:35;;;;;;;5.63;1.73;;;;;;;;;;6119985;23;20041;-80
2023/04/05 05:15:00;;;;;;;3.15;1.25;;;;;;;;;;6123063;23;20017;-80
2023/04/05 05:17:25;;;;;;;3.85;1.70;;;;;;;;;;6107821;23;20092;-80
2023/04/05 05:19:51;;;;;;;3.15;1.50;;;;;;;;;;6146648;23;20089;-80
2023/04/05 05:22:17;;;;;;;4.03;1.58;;;;;;;;;;6120444;23;20399;-81
2023/04/05 05:24:43;;;;;;;2.90;1.25;;;;;;;;;;6122459;23;20020;-80
2023/04/05 05:27:09;;;;;;;2.97;1.33;;;;;;;;;;6096273;23;20510;-82
2023/04/05 05:29:34;;;;;;;4.05;1.33;;;;;;;;;;6120877;23;20100;-81
2023/04/05 05:32:00;;;;;;;3.95;1.27;;;;;;;;;;6120849;23;20474;-82
2023/04/05 05:34:26;;;;;;;3.30;1.40;;;;;;;;;;6119771;23;20021;-83
2023/04/05 05:36:52;;;;;;;4.90;1.67;;;;;;;;;;6144616;23;20522;-82
2023/04/05 05:39:19;;;;;;;3.38;1.40;;;;;;;;;;6146599;23;20486;-82
2023/04/05 05:41:44;;;;;;;4.68;1.63;;;;;;;;;;6119194;23;20056;-82
2023/04/05 05:44:10;;;;;;;3.03;1.25;;;;;;;;;;6119771;23;20033;-83
2023/04/05 05:46:35;;;;;;;4.68;1.27;;;;;;;;;;6118018;23;20333;-83
2023/04/05 05:49:01;;;;;;;5.00;1.40;;;;;;;;;;6145254;23;20022;-83
2023/04/05 05:51:26;;;;;;;3.65;1.80;;;;;;;;;;6094159;23;20026;-83
2023/04/05 05:53:51;;;;;;;2.85;1.20;;;;;;;;;;6118732;23;20025;-82
2023/04/05 05:56:17;;;;;;;5.40;1.65;;;;;;;;;;6145450;23;20053;-83
2023/04/05 05:58:42;;;;;;;4.60;1.42;;;;;;;;;;6119132;23;20065;-83
2023/04/05 06:01:10;;;;;;;4.55;1.42;;;;;;;;;;6144547;23;20060;-83
2023/04/05 06:03:36;;;;;;;4.60;1.77;;;;;;;;;;6095130;23;20076;-85
2023/04/05 06:06:04;;;;;;;3.55;1.25;;;;;;;;;;6144155;23;20009;-83
2023/04/05 06:08:30;;;;;;;4.30;1.55;;;;;;;;;;6095705;23;20021;-84
2023/04/05 06:10:56;;;;;;;4.32;1.52;;;;;;;;;;6118937;23;20020;-82
2023/04/05 06:13:21;;;;;;;4.03;1.30;;;;;;;;;;6118951;23;20096;-82
2023/04/05 06:15:47;;;;;;;3.78;1.23;;;;;;;;;;6094973;23;20017;-83
2023/04/05 06:18:13;;;;;;;2.90;1.15;;;;;;;;;;6144521;23;20030;-83
2023/04/05 06:20:41;;;;;;;2.92;1.02;;;;;;;;;;6119232;23;20018;-83
2023/04/05 06:23:07;;;;;;;3.97;1.63;;;;;;;;;;6144544;23;20456;-83
2023/04/05 06:25:32;;;;;;;4.70;1.30;;;;;;;;;;6118890;23;20013;-83
2023/04/05 06:27:58;;;;;;;4.30;1.50;;;;;;;;;;6119305;23;20013;-82
2023/04/05 06:30:23;;;;;;;5.88;1.30;;;;;;;;;;6144279;23;20021;-82
2023/04/05 06:32:53;;;;;;;2.08;0.90;;;;;;;;;;6119804;23;20025;-83
2023/04/05 06:35:19;;;;;;;3.60;1.23;;;;;;;;;;6119398;23;20021;-83
2023/04/05 06:37:45;;;;;;;2.35;0.90;;;;;;;;;;6095020;23;20088;-83
2023/04/05 06:40:10;;;;;;;3.22;1.08;;;;;;;;;;6119599;23;20487;-83
2023/04/05 06:42:36;;;;;;;3.15;1.30;;;;;;;;;;6144070;23;20100;-83
2023/04/05 06:45:03;;;;;;;4.03;1.38;;;;;;;;;;6119531;23;20013;-82
2023/04/05 06:47:29;;;;;;;3.97;1.48;;;;;;;;;;6094845;23;20014;-84
2023/04/05 06:49:54;;;;;;;3.50;1.20;;;;;;;;;;6118810;23;20416;-83
2023/04/05 06:52:19;;;;;;;3.95;1.35;;;;;;;;;;6145117;23;20233;-83
2023/04/05 06:54:45;;;;;;;4.93;1.60;;;;;;;;;;6118446;23;20344;-82
2023/04/05 06:57:10;;;;;;;4.18;1.48;;;;;;;;;;6094519;23;20018;-82
2023/04/05 06:59:36;;;;;;;6.32;1.55;;;;;;;;;;6096585;23;20021;-83
2023/04/05 07:02:01;;;;;;;3.40;1.33;;;;;;;;;;6120053;23;20687;-83
2023/04/05 07:04:28;;;;;;;4.57;1.60;;;;;;;;;;6120685;23;20017;-84
2023/04/05 07:06:53;;;;;;;5.95;1.77;;;;;;;;;;6095787;23;20013;-84
2023/04/05 07:09:20;;;;;;;6.13;1.67;;;;;;;;;;6147826;23;20514;-84
2023/04/05 07:11:45;;;;;;;4.13;1.83;;;;;;;;;;6120794;23;20606;-83
2023/04/05 07:14:11;;;;;;;5.32;1.80;;;;;;;;;;6146719;23;20022;-84
2023/04/05 07:16:36;;;;;;;8.10;2.00;;;;;;;;;;6146255;23;20090;-83
2023/04/05 07:19:04;;;;;;;3.75;1.83;;;;;;;;;;6095929;23;20096;-84
2023/04/05 07:21:30;;;;;;;4.10;1.77;;;;;;;;;;6120963;23;20705;-84
2023/04/05 07:23:59;;;;;;;5.78;2.40;;;;;;;;;;6120783;23;20076;-83
2023/04/05 07:26:26;;;;;;;4.03;1.80;;;;;;;;;;6096911;23;20018;-83
2023/04/05 07:28:51;;;;;;;4.78;2.17;;;;;;;;;;6146408;23;20092;-83
2023/04/05 07:31:16;;;;;;;4.22;1.83;;;;;;;;;;6120606;23;20022;-84
2023/04/05 07:33:42;;;;;;;4.18;1.83;;;;;;;;;;6120531;23;20017;-84
2023/04/05 07:36:08;;;;;;;3.47;1.65;;;;;;;;;;6119825;23;20064;-84
2023/04/05 07:38:33;;;;;;;4.90;2.45;;;;;;;;;;6095955;23;20071;-83
2023/04/05 07:40:58;;;;;;;5.10;2.17;;;;;;;;;;6146102;23;20010;-83
2023/04/05 07:43:24;;;;;;;5.47;2.00;;;;;;;;;;6120151;23;20021;-83
2023/04/05 07:45:52;;;;;;;6.05;2.72;;;;;;;;;;6121212;23;20028;-83
2023/04/05 07:48:18;;;;;;;5.97;2.50;;;;;;;;;;6145925;23;20017;-83
2023/04/05 07:50:46;;;;;;;7.07;2.33;;;;;;;;;;6095688;23;20064;-85
2023/04/05 07:53:12;;;;;;;5.40;2.22;;;;;;;;;;6106518;23;20013;-83
2023/04/05 07:55:40;;;;;;;8.35;2.35;;;;;;;;;;6119943;23;20027;-83
2023/04/05 07:58:05;;;;;;;5.53;1.77;;;;;;;;;;6145792;23;20055;-83
2023/04/05 08:00:31;;;;;;;4.95;2.03;;;;;;;;;;6094625;23;20519;-83
2023/04/05 08:02:56;;;;;;;5.80;2.20;;;;;;;;;;6146496;23;20084;-83
2023/04/05 08:05:21;;;;;;;8.65;2.55;;;;;;;;;;6094786;23;20021;-83
2023/04/05 08:07:47;;;;;;;6.97;2.83;;;;;;;;;;6145884;23;20048;-84
2023/04/05 08:10:12;;;;;;;5.10;2.00;;;;;;;;;;6095069;23;20021;-83
2023/04/05 08:12:37;;;;;;;7.15;2.35;;;;;;;;;;6145785;23;20032;-83
2023/04/05 08:15:03;;;;;;;5.63;2.47;;;;;;;;;;6120769;23;20025;-86
2023/04/05 08:17:29;;;;;;;6.70;2.70;;;;;;;;;;6119519;23;20029;-86
2023/04/05 08:19:54;;;;;;;6.13;2.58;;;;;;;;;;6094032;23;20096;-84
2023/04/05 08:22:20;;;;;;;5.93;2.35;;;;;;;;;;6119835;23;20021;-84
2023/04/05 08:24:45;;;;;;;6.45;2.53;;;;;;;;;;6120012;23;20014;-84
2023/04/05 08:27:11;;;;;;;8.02;2.50;;;;;;;;;;6119325;23;20092;-83
2023/04/05 08:29:37;;;;;;;7.30;2.67;;;;;;;;;;6119933;23;20347;-85
2023/04/05 08:32:03;;;;;;;6.75;2.60;;;;;;;;;;6093698;23;20416;-85
2023/04/05 08:34:28;;;;;;;7.63;2.42;;;;;;;;;;6145727;23;20018;-84
2023/04/05 08:36:58;;;;;;;6.88;2.58;;;;;;;;;;6094779;23;20036;-84
2023/04/05 08:39:24;;;;;;;5.97;2.30;;;;;;;;;;6146657;23;20094;-85
2023/04/05 08:41:57;;;;;;;6.13;2.65;;;;;;;;;;6095651;23;20425;-85
2023/04/05 08:44:24;;;;;;;7.15;2.70;;;;;;;;;;6118499;23;20498;-85
2023/04/05 08:46:50;;;;;;;6.90;2.92;;;;;;;;;;6095663;23;20025;-85
2023/04/05 08:49:16;;;;;;;5.22;2.53;;;;;;;;;;6119141;23;20431;-84
2023/04/05 08:51:41;;;;;;;6.18;2.78;;;;;;;;;;6094591;23;20018;-85
2023/04/05 08:54:07;;;;;;;6.25;2.45;;;;;;;;;;6105438;23;20770;-83
2023/04/05 08:56:34;;;;;;;7.43;2.58;;;;;;;;;;6117842;23;20741;-84
2023/04/05 08:59:02;;;;;;;6.32;2.45;;;;;;;;;;6146180;23;20137;-83
2023/04/05 09:01:29;;;;;;;6.72;2.50;;;;;;;;;;6145853;23;20028;-85
2023/04/05 09:04:00;;;;;;;7.35;2.10;;;;;;;;;;6121528;23;20068;-86
2023/04/05 09:06:27;;;;;;;6.07;2.05;;;;;;;;;;6120335;23;20718;-83
2023/04/05 09:08:56;;;;;;;5.20;2.37;;;;;;;;;;6121953;23;20069;-84
2023/04/05 09:11:22;;;;;;;6.00;2.30;;;;;;;;;;6145594;23;20407;-86
2023/04/05 09:13:47;;;;;;;6.40;2.40;;;;;;;;;;6121537;23;20026;-85
2023/04/05 09:16:16;;;;;;;4.60;2.38;;;;;;;;;;6141243;23;20028;-85
2023/04/05 09:18:42;;;;;;;5.72;2.28;;;;;;;;;;6145022;23;20072;-83
2023/04/05 09:21:09;;;;;;;6.13;2.53;;;;;;;;;;6119543;23;20347;-85
2023/04/05 09:23:35;;;;;;;5.40;2.40;;;;;;;;;;6119603;23;20021;-83
2023/04/05 09:26:00;;;;;;;5.10;2.38;;;;;;;;;;6119335;23;20009;-85
2023/04/05 09:28:52;;;;;;;4.57;2.10;;;;;;;;;;6119565;23;20319;-85
2023/04/05 09:31:35;;;;;;;4.85;2.35;;;;;;;;;;6140564;23;20049;-85
2023/04/05 09:34:04;;;;;;;5.03;1.90;;;;;;;;;;6144527;23;20025;-85
2023/04/05 09:36:32;;;;;;;4.25;2.10;;;;;;;;;;6145407;23;20017;-83
2023/04/05 09:39:05;;;;;;;4.88;2.08;;;;;;;;;;6119466;23;20706;-84
2023/04/05 09:41:31;;;;;;;5.05;2.30;;;;;;;;;;6119997;23;20028;-84
2023/04/05 09:43:57;;;;;;;4.85;2.50;;;;;;;;;;6119333;23;20021;-85
2023/04/05 09:46:35;;;;;;;5.18;2.30;;;;;;;;;;6145568;23;20033;-84
2023/04/05 09:49:02;;;;;;;6.65;2.20;;;;;;;;;;6120067;23;20075;-83
2023/04/05 09:51:35;;;;;;;5.83;2.30;;;;;;;;;;6144816;23;20459;-83
2023/04/05 09:54:02;;;;;;;6.03;2.40;;;;;;;;;;6119256;23;20024;-83
2023/04/05 09:56:30;;;;;;;6.32;2.90;;;;;;;;;;6119439;23;20567;-83
2023/04/05 09:59:00;;;;;;;4.90;2.40;;;;;;;;;;6120054;23;20018;-82
2023/04/05 10:01:31;;;;;;;6.15;2.42;;;;;;;;;;6120872;23;20113;-83
2023/04/05 10:03:58;;;;;;;5.05;2.72;;;;;;;;;;6119060;23;20469;-82
2023/04/05 10:06:34;;;;;;;7.23;2.77;;;;;;;;;;6118778;23;20451;-83
2023/04/05 10:08:59;;;;;;;6.60;3.15;;;;;;;;;;6119195;23;20245;-83
2023/04/05 10:11:25;;;;;;;4.93;2.03;;;;;;;;;;6118732;23;20018;-82
2023/04/05 10:13:50;;;;;;;4.18;2.08;;;;;;;;;;6145961;23;20076;-83
2023/04/05 10:16:20;;;;;;;4.38;2.00;;;;;;;;;;6144604;23;20027;-82
2023/04/05 10:18:50;;;;;;;3.75;1.80;;;;;;;;;;6119354;23;20411;-82
2023/04/05 10:21:22;;;;;;;4.63;2.10;;;;;;;;;;6119016;23;20024;-82
2023/04/05 10:23:55;;;;;;;5.90;2.30;;;;;;;;;;6094997;23;20399;-83
2023/04/05 10:26:40;;;;;;;5.25;1.95;;;;;;;;;;6119049;23;20020;-83
2023/04/05 10:29:11;;;;;;;5.80;2.22;;;;;;;;;;6119297;23;20021;-83
2023/04/05 10:31:47;;;;;;;4.43;2.25;;;;;;;;;;6118740;23;20045;-83
2023/04/05 10:34:26;;;;;;;5.55;2.20;;;;;;;;;;6146894;23;20890;-83
2023/04/05 10:36:56;;;;;;;6.53;2.50;;;;;;;;;;6120249;23;20013;-82
2023/04/05 10:39:22;;;;;;;5.05;2.00;;;;;;;;;;6121330;23;20026;-82
2023/04/05 10:41:56;;;;;;;4.78;2.20;;;;;;;;;;6120623;23;20014;-81
2023/04/05 10:44:22;;;;;;;5.10;2.10;;;;;;;;;;6120898;23;20365;-81
2023/04/05 10:46:47;;;;;;;4.95;2.05;;;;;;;;;;6147103;23;20022;-81
2023/04/05 10:49:42;;;;;;;5.78;2.00;;;;;;;;;;6120262;23;20018;-81
2023/04/05 10:52:08;;;;;;;4.78;2.00;;;;;;;;;;6087892;23;20347;-82
2023/04/05 10:54:35;;;;;;;4.55;1.90;;;;;;;;;;6120634;23;20022;-81
2023/04/05 10:57:04;;;;;;;4.60;2.03;;;;;;;;;;6094913;23;20029;-81
2023/04/05 10:59:30;;;;;;;7.43;2.00;;;;;;;;;;6120911;23;20096;-82
2023/04/05 11:01:56;;;;;;;14.18;2.95;;;;;;;;;;6119299;23;20792;-81
2023/04/05 11:04:22;;;;;;;5.22;1.77;;;;;;;;;;6095554;23;20317;-81
2023/04/05 11:07:10;;;;;;;5.65;2.10;;;;;;;;;;6119603;23;20092;-82
2023/04/05 11:09:36;;;;;;;5.65;1.83;;;;;;;;;;6119592;23;20021;-83
2023/04/05 11:12:01;;;;;;;5.18;1.90;;;;;;;;;;6118026;23;20018;-83
2023/04/05 11:14:32;;;;;;;5.05;2.30;;;;;;;;;;6119169;23;20459;-82
2023/04/05 11:16:58;;;;;;;6.28;1.90;;;;;;;;;;6118789;23;20021;-82
2023/04/05 11:19:48;;;;;;;4.65;1.88;;;;;;;;;;6145357;23;20443;-82
2023/04/05 11:22:23;;;;;;;8.50;2.28;;;;;;;;;;6104492;23;20104;-82
2023/04/05 11:25:01;;;;;;;5.50;2.63;;;;;;;;;;6146815;23;20021;-83
2023/04/05 11:27:35;;;;;;;14.60;5.85;;;;;;;;;;6119164;23;20438;-83
2023/04/05 11:30:03;;;;;;;5.90;2.60;;;;;;;;;;6146614;23;20477;-83
2023/04/05 11:32:57;;;;;;;6.07;2.47;;;;;;;;;;6118935;23;20077;-83
2023/04/05 11:35:23;;;;;;;6.22;2.22;;;;;;;;;;6094383;23;20022;-83
2023/04/05 11:37:52;;;;;;;5.35;2.30;;;;;;;;;;6095680;23;20028;-84
2023/04/05 11:40:28;;;;;;;5.55;2.20;;;;;;;;;;6145163;23;20025;-83
2023/04/05 11:43:07;;;;;;;5.32;2.20;;;;;;;;;;6144392;23;20017;-83
2023/04/05 11:45:33;;;;;;;4.70;2.00;;;;;;;;;;6145961;23;20104;-84
2023/04/05 11:48:10;;;;;;;4.20;1.80;;;;;;;;;;6119860;23;20036;-83
2023/04/05 11:50:37;;;;;;;5.07;2.03;;;;;;;;;;6118491;23;20100;-84
2023/04/05 11:53:09;;;;;;;6.88;2.10;;;;;;;;;;6119860;23;20018;-84
2023/04/05 11:55:35;;;;;;;7.03;2.05;;;;;;;;;;6118856;23;20047;-84
2023/04/05 11:58:00;;;;;;;5.22;1.85;;;;;;;;;;6095432;23;20025;-83
2023/04/05 12:00:26;;;;;;;5.18;2.17;;;;;;;;;;6119614;23;20085;-82
2023/04/05 12:02:55;;;;;;;5.30;2.00;;;;;;;;;;6120399;23;20033;-82
2023/04/05 12:05:21;;;;;;;4.43;1.60;;;;;;;;;;6120216;23;20754;-83
2023/04/05 12:07:51;;;;;;;4.85;2.00;;;;;;;;;;6146243;23;20096;-83
2023/04/05 12:10:17;;;;;;;4.43;2.10;;;;;;;;;;6120031;23;20463;-82
2023/04/05 12:12:43;;;;;;;5.15;2.42;;;;;;;;;;6146037;23;20016;-83
2023/04/05 12:15:13;;;;;;;6.15;2.25;;;;;;;;;;6119764;23;20017;-82
2023/04/05 12:17:45;;;;;;;3.08;1.77;;;;;;;;;;6119715;23;20400;-83
2023/04/05 12:20:12;;;;;;;4.38;1.80;;;;;;;;;;6119812;23;20021;-83
2023/04/05 12:22:40;;;;;;;5.03;1.70;;;;;;;;;;6094678;23;20021;-82
2023/04/05 12:25:06;;;;;;;4.88;2.00;;;;;;;;;;6095749;23;20021;-84
2023/04/05 12:27:31;;;;;;;3.88;1.85;;;;;;;;;;6095296;23;20337;-82
2023/04/05 12:30:17;;;;;;;3.85;1.75;;;;;;;;;;6145973;23;20041;-83
2023/04/05 12:32:47;;;;;;;3.78;1.70;;;;;;;;;;6146153;23;20021;-82
2023/04/05 12:35:20;;;;;;;4.22;1.48;;;;;;;;;;6145171;23;20096;-83
2023/04/05 12:37:46;;;;;;;3.90;1.70;;;;;;;;;;6095242;23;20018;-83
2023/04/05 12:40:12;;;;;;;5.30;1.67;;;;;;;;;;6119264;23;20025;-82
2023/04/05 12:42:39;;;;;;;4.50;1.70;;;;;;;;;;6145571;23;20033;-83
2023/04/05 12:45:09;;;;;;;4.95;1.65;;;;;;;;;;6119519;23;20515;-82
2023/04/05 12:47:35;;;;;;;4.60;1.73;;;;;;;;;;6119885;23;20380;-82
2023/04/05 12:50:17;;;;;;;5.70;2.70;;;;;;;;;;6119954;23;20028;-82
2023/04/05 12:53:04;;;;;;;3.78;1.85;;;;;;;;;;6119645;23;20026;-83
2023/04/05 12:55:30;;;;;;;3.38;1.63;;;;;;;;;;6119392;23;20017;-83
2023/04/05 12:57:59;;;;;;;3.92;1.75;;;;;;;;;;6095067;23;20013;-83
2023/04/05 13:00:26;;;;;;;3.90;1.90;;;;;;;;;;6119662;23;20025;-83
2023/04/05 13:02:53;;;;;;;5.55;2.05;;;;;;;;;;6095102;23;20018;-81
2023/04/05 13:05:20;;;;;;;4.63;2.20;;;;;;;;;;6145999;23;20022;-84
2023/04/05 13:07:45;;;;;;;5.33;2.40;;;;;;;;;;6120316;23;20010;-84
2023/04/05 13:10:11;;;;;;;3.75;2.10;;;;;;;;;;6118390;23;20102;-83
2023/04/05 13:12:36;;;;;;;4.00;2.08;;;;;;;;;;6145841;23;20334;-83
2023/04/05 13:15:02;;;;;;;3.83;1.80;;;;;;;;;;6145909;23;20053;-83
2023/04/05 13:17:27;;;;;;;4.60;1.90;;;;;;;;;;6144535;23;20387;-83
2023/04/05 13:19:53;;;;;;;3.92;2.08;;;;;;;;;;6119922;23;20017;-82
2023/04/05 13:22:18;;;;;;;4.93;1.98;;;;;;;;;;6145325;23;20021;-83
2023/04/05 13:24:44;;;;;;;4.55;1.95;;;;;;;;;;6119783;23;20006;-83
2023/04/05 13:27:09;;;;;;;4.07;1.88;;;;;;;;;;6118997;23;20006;-84
2023/04/05 13:29:34;;;;;;;7.30;1.98;;;;;;;;;;6119580;23;20018;-84
2023/04/05 13:32:00;;;;;;;4.40;1.92;;;;;;;;;;6118880;23;20076;-83
2023/04/05 13:34:26;;;;;;;3.60;1.90;;;;;;;;;;6119154;23;20364;-82
2023/04/05 13:36:51;;;;;;;5.82;1.70;;;;;;;;;;6145417;23;20014;-85
2023/04/05 13:39:16;;;;;;;5.35;2.03;;;;;;;;;;6119197;23;20021;-82
2023/04/05 13:41:42;;;;;;;3.58;1.70;;;;;;;;;;6145630;23;20017;-84
2023/04/05 13:44:07;;;;;;;4.40;1.70;;;;;;;;;;6119775;23;20379;-83
2023/04/05 13:46:34;;;;;;;4.13;1.70;;;;;;;;;;6144953;23;20025;-84
2023/04/05 13:48:59;;;;;;;5.47;1.60;;;;;;;;;;6119490;23;20009;-83
2023/04/05 13:51:30;;;;;;;3.20;1.45;;;;;;;;;;6091280;23;20456;-84
2023/04/05 13:53:55;;;;;;;3.90;1.88;;;;;;;;;;6120034;23;20022;-84
2023/04/05 13:56:21;;;;;;;4.07;1.70;;;;;;;;;;6094382;23;20081;-83
2023/04/05 13:58:47;;;;;;;4.88;2.13;;;;;;;;;;6145896;23;20463;-82
2023/04/05 14:01:12;;;;;;;3.85;1.70;;;;;;;;;;6118439;23;20101;-84
2023/04/05 14:03:38;;;;;;;4.10;1.70;;;;;;;;;;6119796;23;20018;-85
2023/04/05 14:06:03;;;;;;;3.45;1.58;;;;;;;;;;6093638;23;20662;-85
2023/04/05 14:08:31;;;;;;;4.50;1.75;;;;;;;;;;6121395;23;20025;-84
2023/04/05 14:10:56;;;;;;;3.63;1.73;;;;;;;;;;6119844;23;20037;-83
2023/04/05 14:13:21;;;;;;;4.57;1.60;;;;;;;;;;6148540;23;20613;-83
2023/04/05 14:15:48;;;;;;;6.05;2.13;;;;;;;;;;6121060;23;20013;-83
2023/04/05 14:18:13;;;;;;;5.18;2.10;;;;;;;;;;6147597;23;20013;-83
2023/04/05 14:20:39;;;;;;;5.40;1.73;;;;;;;;;;6146844;23;20021;-84
2023/04/05 14:23:05;;;;;;;5.15;2.20;;;;;;;;;;6119980;23;20017;-84
2023/04/05 14:25:30;;;;;;;4.80;1.80;;;;;;;;;;6120947;23;20041;-84
2023/04/05 14:27:55;;;;;;;4.07;1.70;;;;;;;;;;6147665;23;20044;-83
2023/04/05 14:30:21;;;;;;;3.60;1.75;;;;;;;;;;6146879;23;20018;-84
2023/04/05 14:32:46;;;;;;;4.22;1.52;;;;;;;;;;6120740;23;20013;-84
2023/04/05 14:35:12;;;;;;;3.25;1.45;;;;;;;;;;6147100;23;20022;-84
2023/04/05 14:37:37;;;;;;;3.55;1.60;;;;;;;;;;6147077;23;20021;-84
2023/04/05 14:40:03;;;;;;;4.93;1.80;;;;;;;;;;6147774;23;20017;-84
2023/04/05 14:42:28;;;;;;;5.65;2.10;;;;;;;;;;6145456;23;20017;-83
2023/04/05 14:44:54;;;;;;;3.60;1.80;;;;;;;;;;6121399;23;20010;-84